Weather reports worldwide

Advertisment
Manchester/Intl, United Kingdom (3334): temperature & dewpoint: 04.12.2018 10:00:00 - 10.12.2018 10:00:00 (GMT)Manchester/Intl, United Kingdom (3334): wind speed: 04.12.2018 10:00:00 - 10.12.2018 10:00:00 (GMT)Manchester/Intl, United Kingdom (3334): wind direction: 04.12.2018 10:00:00 - 10.12.2018 10:00:00 (GMT)Manchester/Intl, United Kingdom (3334): visibility: 04.12.2018 10:00:00 - 10.12.2018 10:00:00 (GMT)
Date & Time tt [°C] td [°C] ff [km/h] ff [kn] dd vv [km]
10.12.2018 10:00:00 - - - - - -
10.12.2018 09:00:00 6,0 5,0 8 4 W 10
10.12.2018 08:00:00 5,0 4,0 9 5 WSW 10
10.12.2018 07:00:00 6,0 4,0 8 4 W 10
10.12.2018 06:00:00 5,0 4,0 9 5 W 10
10.12.2018 05:00:00 6,0 5,0 8 4 WSW 10
10.12.2018 04:00:00 6,0 5,0 4 2 - 10
10.12.2018 03:00:00 6,0 5,0 4 2 - 10
10.12.2018 02:00:00 6,0 4,0 9 5 WSW 10
10.12.2018 01:00:00 6,0 5,0 5 3 - 10
10.12.2018 00:00:00 5,0 4,0 4 2 WSW 10
09.12.2018 23:00:00 6,0 5,0 8 4 WSW 10
09.12.2018 22:00:00 6,0 5,0 8 4 WSW 10
09.12.2018 21:00:00 6,0 4,0 4 2 - 9
09.12.2018 20:00:00 7,0 4,0 8 4 W 10
09.12.2018 19:00:00 7,0 3,0 8 4 W 10
09.12.2018 18:00:00 7,0 2,0 11 6 W 10
09.12.2018 17:00:00 7,0 2,0 11 6 WNW 10
09.12.2018 16:00:00 8,0 2,0 11 6 WNW 10
09.12.2018 15:00:00 8,0 2,0 18 10 WNW 10
09.12.2018 14:00:00 9,0 3,0 21 11 NW 10
09.12.2018 13:00:00 9,0 3,0 24 13 NW 10
09.12.2018 12:00:00 8,0 4,0 26 14 WNW 10
09.12.2018 11:00:00 9,0 5,0 21 11 WNW 10
09.12.2018 10:00:00 8,0 5,0 11 6 W 10
09.12.2018 09:00:00 7,0 5,0 15 8 WNW 10
09.12.2018 08:00:00 7,0 5,0 16 9 NW 10
09.12.2018 07:00:00 8,0 6,0 18 10 WNW 10
09.12.2018 06:00:00 8,0 6,0 18 10 W 10
09.12.2018 05:00:00 8,0 6,0 15 8 W 10
09.12.2018 04:00:00 8,0 6,0 21 11 WSW 4,9
09.12.2018 03:00:00 7,0 5,0 22 12 WSW 10
09.12.2018 02:00:00 8,0 5,0 24 13 WSW 10
09.12.2018 01:00:00 8,0 5,0 29 16 WSW 10
09.12.2018 00:00:00 9,0 4,0 29 16 WSW 10
08.12.2018 23:00:00 8,0 5,0 35 19 WSW 10
08.12.2018 22:00:00 8,0 5,0 39 21 W 10
08.12.2018 21:00:00 8,0 5,0 31 17 WSW 4,9
08.12.2018 20:00:00 9,0 4,0 34 18 W 10
08.12.2018 19:00:00 8,0 5,0 31 17 W 9
08.12.2018 18:00:00 8,0 5,0 22 12 W 10
08.12.2018 17:00:00 10,0 5,0 35 19 W 10
08.12.2018 16:00:00 9,0 5,0 26 14 WSW 10
08.12.2018 15:00:00 9,0 7,0 29 16 WSW 9
08.12.2018 14:00:00 9,0 7,0 11 6 SSW 10
08.12.2018 13:00:00 8,0 6,0 9 5 S 4,5
08.12.2018 12:00:00 9,0 4,0 11 6 SSW 10
08.12.2018 11:00:00 9,0 4,0 28 15 WSW 10
08.12.2018 10:00:00 9,0 4,0 26 14 SW 10
08.12.2018 09:00:00 9,0 4,0 34 18 W 9
08.12.2018 08:00:00 8,0 5,0 39 21 W 10
08.12.2018 07:00:00 9,0 5,0 44 24 W 10
08.12.2018 06:00:00 8,0 6,0 37 20 W 10
08.12.2018 05:00:00 8,0 6,0 41 22 W 10
08.12.2018 04:00:00 9,0 5,0 48 26 W 10
08.12.2018 03:00:00 8,0 5,0 48 26 WSW 10
08.12.2018 02:00:00 9,0 4,0 48 26 WSW 8
08.12.2018 01:00:00 9,0 3,0 26 14 SW 10
08.12.2018 00:00:00 8,0 3,0 26 14 SW 10
07.12.2018 23:00:00 8,0 3,0 29 16 SW 10
07.12.2018 22:00:00 8,0 2,0 28 15 SW 10
07.12.2018 21:00:00 7,0 2,0 24 13 SW 10
07.12.2018 20:00:00 6,0 2,0 21 11 SW 10
07.12.2018 19:00:00 5,0 1,0 11 6 SSW 10
07.12.2018 18:00:00 5,0 1,0 15 8 SW 10
07.12.2018 17:00:00 6,0 0,0 26 14 WSW 10
07.12.2018 16:00:00 7,0 0,0 29 16 WSW 10
07.12.2018 15:00:00 7,0 0,0 35 19 WSW 10
07.12.2018 14:00:00 8,0 1,0 34 18 W 10
07.12.2018 13:00:00 9,0 2,0 39 21 WSW 10
07.12.2018 12:00:00 9,0 2,0 34 18 W 10
07.12.2018 11:00:00 9,0 3,0 28 15 WSW 10
07.12.2018 10:00:00 8,0 3,0 26 14 W 10
07.12.2018 09:00:00 9,0 4,0 26 14 W 10
07.12.2018 08:00:00 9,0 6,0 24 13 W 8
07.12.2018 07:00:00 12,0 10,0 16 9 SSW 2,0
07.12.2018 06:00:00 12,0 11,0 16 9 SSW 5
07.12.2018 05:00:00 12,0 11,0 18 10 S 10
07.12.2018 04:00:00 12,0 11,0 15 8 S 7
07.12.2018 03:00:00 12,0 11,0 16 9 S 10
07.12.2018 02:00:00 12,0 10,0 16 9 S 10
07.12.2018 01:00:00 12,0 10,0 15 8 S 10
07.12.2018 00:00:00 12,0 10,0 11 6 S 10
06.12.2018 23:00:00 12,0 10,0 8 4 S 10
06.12.2018 22:00:00 12,0 10,0 13 7 SSW 10
06.12.2018 21:00:00 12,0 10,0 11 6 SSW 10
06.12.2018 20:00:00 12,0 10,0 13 7 SSW 10
06.12.2018 19:00:00 12,0 10,0 9 5 S 10
06.12.2018 18:00:00 12,0 10,0 15 8 SW 10
06.12.2018 17:00:00 12,0 10,0 16 9 SW 10
06.12.2018 16:00:00 12,0 10,0 15 8 SSW 10
06.12.2018 15:00:00 12,0 10,0 15 8 SSW 10
06.12.2018 14:00:00 12,0 9,0 15 8 SSW 10
06.12.2018 13:00:00 11,0 8,0 15 8 SSW 10
06.12.2018 12:00:00 12,0 8,0 16 9 SSW 10
06.12.2018 11:00:00 11,0 9,0 15 8 SSW 10
06.12.2018 10:00:00 11,0 9,0 15 8 S 10
06.12.2018 09:00:00 11,0 9,0 11 6 S 10
06.12.2018 08:00:00 11,0 9,0 13 7 S 10
06.12.2018 07:00:00 10,0 9,0 11 6 S 10
06.12.2018 06:00:00 10,0 9,0 9 5 SSW 10
06.12.2018 05:00:00 9,0 8,0 8 4 S 4,0
06.12.2018 04:00:00 9,0 9,0 5 3 - 1,7
06.12.2018 03:00:00 10,0 9,0 8 4 SW 0,7
06.12.2018 02:00:00 10,0 9,0 11 6 W 1,3
06.12.2018 01:00:00 10,0 9,0 15 8 WNW 1,2
06.12.2018 00:00:00 10,0 9,0 9 5 W 0,4
05.12.2018 23:00:00 10,0 9,0 13 7 W 6
05.12.2018 22:00:00 10,0 10,0 15 8 W 2,4
05.12.2018 21:00:00 11,0 10,0 15 8 W 2,9
05.12.2018 20:00:00 10,0 9,0 9 5 SW 1,9
05.12.2018 19:00:00 10,0 9,0 8 4 S 10
05.12.2018 18:00:00 11,0 9,0 8 4 S 10
05.12.2018 17:00:00 10,0 9,0 5 3 - 6
05.12.2018 16:00:00 10,0 9,0 8 4 SSE 10
05.12.2018 15:00:00 10,0 8,0 9 5 SSE 10
05.12.2018 14:00:00 10,0 8,0 11 6 SSE 10
05.12.2018 13:00:00 9,0 8,0 13 7 SE 10
05.12.2018 12:00:00 9,0 7,0 9 5 SE 3,3
05.12.2018 11:00:00 7,0 6,0 8 4 ESE 4,5
05.12.2018 10:00:00 7,0 5,0 5 3 - 6
05.12.2018 09:00:00 6,0 5,0 8 4 SE 6
05.12.2018 08:00:00 6,0 4,0 11 6 SE 9
05.12.2018 07:00:00 6,0 4,0 8 4 SE 10
05.12.2018 06:00:00 5,0 3,0 5 3 - 10
05.12.2018 05:00:00 5,0 3,0 11 6 ESE 6
05.12.2018 04:00:00 5,0 2,0 4 2 - 10
05.12.2018 03:00:00 4,0 2,0 5 3 - 10
05.12.2018 02:00:00 4,0 2,0 8 4 ESE 10
05.12.2018 01:00:00 4,0 2,0 8 4 ESE 10
05.12.2018 00:00:00 5,0 2,0 5 3 - 10
04.12.2018 23:00:00 5,0 2,0 8 4 S 10
04.12.2018 22:00:00 5,0 3,0 8 4 S 10
04.12.2018 21:00:00 5,0 2,0 4 2 - 10
04.12.2018 20:00:00 5,0 2,0 4 2 - 10
04.12.2018 19:00:00 5,0 2,0 5 3 - 10
04.12.2018 18:00:00 4,0 2,0 4 2 - 10
04.12.2018 17:00:00 4,0 3,0 4 2 - 10
04.12.2018 16:00:00 5,0 3,0 4 2 - 10
04.12.2018 15:00:00 5,0 3,0 5 3 - 10
04.12.2018 14:00:00 5,0 3,0 4 2 - 10
04.12.2018 13:00:00 5,0 3,0 4 2 - 10
04.12.2018 12:00:00 4,0 3,0 4 2 - 10
04.12.2018 11:00:00 4,0 3,0 5 3 - 10
04.12.2018 10:00:00 2,0 1,0 4 2 S 10

tt = temperature
td = dewpoint
ff = wind speed
dd = wind direction
vv = visibility

Next stations